sensor_id;sensor_type;location;lat;lon;timestamp;pressure;altitude;pressure_sealevel;temperature;humidity
21902;BME280;11115;46.038;14.612;2022-07-06T00:02:27;98741.69;;;19.19;100.00
21902;BME280;11115;46.038;14.612;2022-07-06T00:04:59;98745.69;;;19.18;100.00
21902;BME280;11115;46.038;14.612;2022-07-06T00:07:49;98742.25;;;19.40;100.00
21902;BME280;11115;46.038;14.612;2022-07-06T00:10:27;98741.38;;;19.52;100.00
21902;BME280;11115;46.038;14.612;2022-07-06T00:12:58;98743.19;;;19.60;100.00
21902;BME280;11115;46.038;14.612;2022-07-06T00:15:26;98747.06;;;19.40;100.00
21902;BME280;11115;46.038;14.612;2022-07-06T00:18:03;98736.25;;;19.26;100.00
21902;BME280;11115;46.038;14.612;2022-07-06T00:20:45;98730.19;;;19.24;100.00
21902;BME280;11115;46.038;14.612;2022-07-06T00:23:23;98722.72;;;19.28;100.00
21902;BME280;11115;46.038;14.612;2022-07-06T00:26:00;98722.16;;;19.38;100.00
21902;BME280;11115;46.038;14.612;2022-07-06T00:28:41;98726.72;;;19.59;100.00
21902;BME280;11115;46.038;14.612;2022-07-06T00:31:18;98714.50;;;19.67;100.00
21902;BME280;11115;46.038;14.612;2022-07-06T00:33:54;98727.69;;;19.66;100.00
21902;BME280;11115;46.038;14.612;2022-07-06T00:36:25;98725.81;;;19.70;100.00
21902;BME280;11115;46.038;14.612;2022-07-06T00:38:57;98728.63;;;19.70;100.00
21902;BME280;11115;46.038;14.612;2022-07-06T00:41:26;98724.81;;;19.63;100.00
21902;BME280;11115;46.038;14.612;2022-07-06T00:43:57;98724.06;;;19.66;100.00
21902;BME280;11115;46.038;14.612;2022-07-06T00:46:31;98729.06;;;19.73;100.00
21902;BME280;11115;46.038;14.612;2022-07-06T00:49:11;98719.09;;;19.75;100.00
21902;BME280;11115;46.038;14.612;2022-07-06T00:52:06;98725.69;;;19.83;100.00
21902;BME280;11115;46.038;14.612;2022-07-06T00:54:39;98730.78;;;19.77;100.00
21902;BME280;11115;46.038;14.612;2022-07-06T00:57:11;98748.28;;;19.70;100.00
21902;BME280;11115;46.038;14.612;2022-07-06T00:59:57;98746.38;;;19.75;100.00
21902;BME280;11115;46.038;14.612;2022-07-06T01:02:32;98747.09;;;19.72;100.00
21902;BME280;11115;46.038;14.612;2022-07-06T01:05:13;98752.25;;;19.69;100.00
21902;BME280;11115;46.038;14.612;2022-07-06T01:07:44;98762.38;;;19.74;100.00
21902;BME280;11115;46.038;14.612;2022-07-06T01:10:17;98745.63;;;19.78;100.00
21902;BME280;11115;46.038;14.612;2022-07-06T01:12:48;98748.63;;;19.69;100.00
21902;BME280;11115;46.038;14.612;2022-07-06T01:15:24;98743.09;;;19.73;100.00
21902;BME280;11115;46.038;14.612;2022-07-06T01:17:56;98741.28;;;19.64;100.00
21902;BME280;11115;46.038;14.612;2022-07-06T01:20:32;98742.81;;;19.62;100.00
21902;BME280;11115;46.038;14.612;2022-07-06T01:23:13;98738.84;;;19.63;100.00
21902;BME280;11115;46.038;14.612;2022-07-06T01:25:44;98753.59;;;19.60;100.00
21902;BME280;11115;46.038;14.612;2022-07-06T01:28:16;98746.38;;;19.75;100.00
21902;BME280;11115;46.038;14.612;2022-07-06T01:30:51;98744.72;;;19.74;100.00
21902;BME280;11115;46.038;14.612;2022-07-06T01:33:29;98743.09;;;19.73;100.00
21902;BME280;11115;46.038;14.612;2022-07-06T01:36:07;98733.78;;;19.68;100.00
21902;BME280;11115;46.038;14.612;2022-07-06T01:38:55;98734.78;;;19.60;100.00
21902;BME280;11115;46.038;14.612;2022-07-06T01:41:37;98741.19;;;19.61;100.00
21902;BME280;11115;46.038;14.612;2022-07-06T01:44:11;98743.56;;;19.59;100.00
21902;BME280;11115;46.038;14.612;2022-07-06T01:46:41;98740.78;;;19.47;100.00
21902;BME280;11115;46.038;14.612;2022-07-06T01:49:18;98747.19;;;19.59;100.00
21902;BME280;11115;46.038;14.612;2022-07-06T01:51:50;98741.84;;;19.70;100.00
21902;BME280;11115;46.038;14.612;2022-07-06T01:54:24;98748.19;;;19.67;100.00
21902;BME280;11115;46.038;14.612;2022-07-06T01:57:01;98748.63;;;19.69;100.00
21902;BME280;11115;46.038;14.612;2022-07-06T01:59:33;98748.63;;;19.69;100.00
21902;BME280;11115;46.038;14.612;2022-07-06T02:02:07;98746.81;;;19.61;100.00
21902;BME280;11115;46.038;14.612;2022-07-06T02:04:57;98748.88;;;19.64;100.00
21902;BME280;11115;46.038;14.612;2022-07-06T02:07:33;98745.09;;;19.56;100.00
21902;BME280;11115;46.038;14.612;2022-07-06T02:10:10;98748.44;;;19.62;100.00
21902;BME280;11115;46.038;14.612;2022-07-06T02:12:42;98743.84;;;19.69;100.00
21902;BME280;11115;46.038;14.612;2022-07-06T02:15:24;98743.00;;;19.53;100.00
21902;BME280;11115;46.038;14.612;2022-07-06T02:17:54;98739.16;;;19.46;100.00
21902;BME280;11115;46.038;14.612;2022-07-06T02:20:29;98731.22;;;19.48;100.00
21902;BME280;11115;46.038;14.612;2022-07-06T02:23:08;98736.19;;;19.38;100.00
21902;BME280;11115;46.038;14.612;2022-07-06T02:25:47;98742.00;;;19.30;100.00
21902;BME280;11115;46.038;14.612;2022-07-06T02:28:20;98734.19;;;19.23;100.00
21902;BME280;11115;46.038;14.612;2022-07-06T02:30:55;98747.25;;;19.31;100.00
21902;BME280;11115;46.038;14.612;2022-07-06T02:33:32;98748.75;;;19.45;100.00
21902;BME280;11115;46.038;14.612;2022-07-06T02:36:04;98740.91;;;19.50;100.00
21902;BME280;11115;46.038;14.612;2022-07-06T02:38:39;98738.19;;;19.38;100.00
21902;BME280;11115;46.038;14.612;2022-07-06T02:41:17;98734.03;;;19.48;100.00
21902;BME280;11115;46.038;14.612;2022-07-06T02:43:46;98735.09;;;19.43;100.00
21902;BME280;11115;46.038;14.612;2022-07-06T02:46:25;98745.16;;;19.44;100.00
21902;BME280;11115;46.038;14.612;2022-07-06T02:48:57;98745.16;;;19.44;100.00
21902;BME280;11115;46.038;14.612;2022-07-06T02:51:28;98758.34;;;19.44;100.00
21902;BME280;11115;46.038;14.612;2022-07-06T02:54:00;98753.03;;;19.38;100.00
21902;BME280;11115;46.038;14.612;2022-07-06T02:56:39;98758.34;;;19.28;100.00
21902;BME280;11115;46.038;14.612;2022-07-06T02:59:15;98754.13;;;19.34;100.00
21902;BME280;11115;46.038;14.612;2022-07-06T03:01:53;98738.28;;;19.41;100.00
21902;BME280;11115;46.038;14.612;2022-07-06T03:04:24;98745.41;;;19.39;100.00
21902;BME280;11115;46.038;14.612;2022-07-06T03:07:03;98738.38;;;19.29;100.00
21902;BME280;11115;46.038;14.612;2022-07-06T03:09:48;98750.22;;;19.38;100.00
21902;BME280;11115;46.038;14.612;2022-07-06T03:12:18;98742.72;;;19.42;100.00
21902;BME280;11115;46.038;14.612;2022-07-06T03:14:51;98749.63;;;19.61;100.00
21902;BME280;11115;46.038;14.612;2022-07-06T03:17:21;98748.72;;;19.57;100.00
21902;BME280;11115;46.038;14.612;2022-07-06T03:19:52;98745.78;;;19.37;100.00
21902;BME280;11115;46.038;14.612;2022-07-06T03:22:24;98738.53;;;19.21;100.00
21902;BME280;11115;46.038;14.612;2022-07-06T03:25:06;98754.56;;;19.36;100.00
21902;BME280;11115;46.038;14.612;2022-07-06T03:27:38;98750.31;;;19.42;100.00
21902;BME280;11115;46.038;14.612;2022-07-06T03:30:15;98749.91;;;19.56;100.00
21902;BME280;11115;46.038;14.612;2022-07-06T03:32:56;98761.94;;;19.56;100.00
21902;BME280;11115;46.038;14.612;2022-07-06T03:35:29;98762.47;;;19.62;100.00
21902;BME280;11115;46.038;14.612;2022-07-06T03:38:05;98758.41;;;19.59;100.00
21902;BME280;11115;46.038;14.612;2022-07-06T03:40:57;98759.19;;;19.44;100.00
21902;BME280;11115;46.038;14.612;2022-07-06T03:43:43;98759.44;;;19.23;100.00
21902;BME280;11115;46.038;14.612;2022-07-06T03:46:14;98761.88;;;19.25;100.00
21902;BME280;11115;46.038;14.612;2022-07-06T03:48:45;98746.97;;;19.36;100.00
21902;BME280;11115;46.038;14.612;2022-07-06T03:51:16;98747.22;;;19.47;100.00
21902;BME280;11115;46.038;14.612;2022-07-06T03:53:47;98729.03;;;19.25;100.00
21902;BME280;11115;46.038;14.612;2022-07-06T03:56:21;98749.47;;;19.26;100.00
21902;BME280;11115;46.038;14.612;2022-07-06T03:59:08;98730.94;;;19.21;100.00
21902;BME280;11115;46.038;14.612;2022-07-06T04:01:55;98750.50;;;19.33;100.00
21902;BME280;11115;46.038;14.612;2022-07-06T04:04:33;98749.56;;;19.45;100.00
21902;BME280;11115;46.038;14.612;2022-07-06T04:07:07;98735.06;;;19.55;100.00
21902;BME280;11115;46.038;14.612;2022-07-06T04:09:40;98732.16;;;19.67;100.00
21902;BME280;11115;46.038;14.612;2022-07-06T04:12:18;98733.44;;;19.70;100.00
21902;BME280;11115;46.038;14.612;2022-07-06T04:14:52;98734.50;;;19.65;100.00
21902;BME280;11115;46.038;14.612;2022-07-06T04:17:33;98736.97;;;19.67;100.00
21902;BME280;11115;46.038;14.612;2022-07-06T04:20:24;98744.81;;;19.77;100.00
21902;BME280;11115;46.038;14.612;2022-07-06T04:22:57;98749.41;;;19.85;100.00
21902;BME280;11115;46.038;14.612;2022-07-06T04:25:32;98752.69;;;19.87;100.00
21902;BME280;11115;46.038;14.612;2022-07-06T04:28:04;98752.59;;;19.84;100.00
21902;BME280;11115;46.038;14.612;2022-07-06T04:30:38;98748.00;;;19.76;100.00
21902;BME280;11115;46.038;14.612;2022-07-06T04:33:16;98741.84;;;19.70;100.00
21902;BME280;11115;46.038;14.612;2022-07-06T04:35:55;98734.47;;;19.81;100.00
21902;BME280;11115;46.038;14.612;2022-07-06T04:38:38;98729.69;;;19.66;100.00
21902;BME280;11115;46.038;14.612;2022-07-06T04:41:42;98726.72;;;19.75;100.00
21902;BME280;11115;46.038;14.612;2022-07-06T04:44:13;98742.75;;;19.74;100.00
21902;BME280;11115;46.038;14.612;2022-07-06T04:46:53;98746.06;;;19.80;100.00
21902;BME280;11115;46.038;14.612;2022-07-06T04:49:27;98751.91;;;19.71;100.00
21902;BME280;11115;46.038;14.612;2022-07-06T04:52:04;98742.38;;;19.60;100.00
21902;BME280;11115;46.038;14.612;2022-07-06T04:54:35;98742.47;;;19.48;100.00
21902;BME280;11115;46.038;14.612;2022-07-06T04:57:14;98733.69;;;19.65;100.00
21902;BME280;11115;46.038;14.612;2022-07-06T04:59:53;98737.94;;;19.59;100.00
21902;BME280;11115;46.038;14.612;2022-07-06T05:02:36;98728.63;;;19.55;100.00
21902;BME280;11115;46.038;14.612;2022-07-06T05:05:12;98732.25;;;19.55;100.00
21902;BME280;11115;46.038;14.612;2022-07-06T05:07:44;98731.94;;;19.45;100.00
21902;BME280;11115;46.038;14.612;2022-07-06T05:10:16;98728.59;;;19.39;100.00
21902;BME280;11115;46.038;14.612;2022-07-06T05:12:53;98750.88;;;19.48;100.00
21902;BME280;11115;46.038;14.612;2022-07-06T05:15:32;98765.59;;;19.45;100.00
21902;BME280;11115;46.038;14.612;2022-07-06T05:18:03;98769.34;;;19.49;100.00
21902;BME280;11115;46.038;14.612;2022-07-06T05:20:43;98770.94;;;19.34;100.00
21902;BME280;11115;46.038;14.612;2022-07-06T05:23:30;98777.28;;;19.31;100.00
21902;BME280;11115;46.038;14.612;2022-07-06T05:26:05;98777.53;;;19.26;100.00
21902;BME280;11115;46.038;14.612;2022-07-06T05:28:55;98766.69;;;19.40;100.00
21902;BME280;11115;46.038;14.612;2022-07-06T05:31:50;98762.53;;;19.50;100.00
21902;BME280;11115;46.038;14.612;2022-07-06T05:34:22;98756.31;;;19.56;100.00
21902;BME280;11115;46.038;14.612;2022-07-06T05:37:09;98760.84;;;19.61;100.00
21902;BME280;11115;46.038;14.612;2022-07-06T05:39:44;98765.38;;;19.65;100.00
21902;BME280;11115;46.038;14.612;2022-07-06T05:42:19;98759.31;;;19.63;100.00
21902;BME280;11115;46.038;14.612;2022-07-06T05:44:59;98758.31;;;19.56;100.00
21902;BME280;11115;46.038;14.612;2022-07-06T05:47:34;98752.78;;;19.59;100.00
21902;BME280;11115;46.038;14.612;2022-07-06T05:50:20;98763.13;;;19.55;100.00
21902;BME280;11115;46.038;14.612;2022-07-06T05:53:01;98764.75;;;19.72;100.00
21902;BME280;11115;46.038;14.612;2022-07-06T05:55:53;98762.47;;;19.78;100.00
21902;BME280;11115;46.038;14.612;2022-07-06T05:58:25;98762.63;;;19.85;100.00
21902;BME280;11115;46.038;14.612;2022-07-06T06:01:04;98756.56;;;19.98;100.00
21902;BME280;11115;46.038;14.612;2022-07-06T06:03:39;98757.31;;;19.80;100.00
21902;BME280;11115;46.038;14.612;2022-07-06T06:06:44;98765.16;;;20.06;100.00
21902;BME280;11115;46.038;14.612;2022-07-06T06:09:30;98758.81;;;20.09;100.00
21902;BME280;11115;46.038;14.612;2022-07-06T06:12:06;98752.75;;;20.07;100.00
21902;BME280;11115;46.038;14.612;2022-07-06T06:14:45;98749.69;;;19.96;100.00
21902;BME280;11115;46.038;14.612;2022-07-06T06:17:27;98739.31;;;20.16;100.00
21902;BME280;11115;46.038;14.612;2022-07-06T06:19:58;98732.44;;;20.13;100.00
21902;BME280;11115;46.038;14.612;2022-07-06T06:22:27;98737.28;;;20.32;100.00
21902;BME280;11115;46.038;14.612;2022-07-06T06:25:03;98740.13;;;20.51;100.00
21902;BME280;11115;46.038;14.612;2022-07-06T06:27:38;98735.78;;;20.54;100.00
21902;BME280;11115;46.038;14.612;2022-07-06T06:30:09;98742.81;;;20.64;100.00
21902;BME280;11115;46.038;14.612;2022-07-06T06:32:43;98739.63;;;20.84;100.00
21902;BME280;11115;46.038;14.612;2022-07-06T06:35:22;98734.69;;;21.01;100.00
21902;BME280;11115;46.038;14.612;2022-07-06T06:37:52;98742.13;;;21.09;100.00
21902;BME280;11115;46.038;14.612;2022-07-06T06:40:27;98741.88;;;20.98;100.00
21902;BME280;11115;46.038;14.612;2022-07-06T06:43:07;98740.78;;;21.03;100.00
21902;BME280;11115;46.038;14.612;2022-07-06T06:46:06;98743.81;;;20.94;100.00
21902;BME280;11115;46.038;14.612;2022-07-06T06:48:41;98739.50;;;21.00;100.00
21902;BME280;11115;46.038;14.612;2022-07-06T06:51:16;98734.47;;;21.09;100.00
21902;BME280;11115;46.038;14.612;2022-07-06T06:53:52;98737.25;;;20.86;100.00
21902;BME280;11115;46.038;14.612;2022-07-06T06:56:24;98735.72;;;21.12;100.00
21902;BME280;11115;46.038;14.612;2022-07-06T06:59:01;98743.28;;;21.27;100.00
21902;BME280;11115;46.038;14.612;2022-07-06T07:01:48;98721.78;;;21.38;100.00
21902;BME280;11115;46.038;14.612;2022-07-06T07:04:30;98721.22;;;21.29;100.00
21902;BME280;11115;46.038;14.612;2022-07-06T07:07:00;98733.84;;;21.39;100.00
21902;BME280;11115;46.038;14.612;2022-07-06T07:09:40;98731.91;;;21.66;100.00
21902;BME280;11115;46.038;14.612;2022-07-06T07:12:11;98719.59;;;21.51;100.00
21902;BME280;11115;46.038;14.612;2022-07-06T07:14:46;98716.38;;;21.75;100.00
21902;BME280;11115;46.038;14.612;2022-07-06T07:17:19;98710.91;;;21.60;100.00
21902;BME280;11115;46.038;14.612;2022-07-06T07:19:54;98718.94;;;21.84;100.00
21902;BME280;11115;46.038;14.612;2022-07-06T07:22:37;98715.41;;;22.17;100.00
21902;BME280;11115;46.038;14.612;2022-07-06T07:25:21;98720.31;;;22.20;100.00
21902;BME280;11115;46.038;14.612;2022-07-06T07:28:01;98710.03;;;22.05;100.00
21902;BME280;11115;46.038;14.612;2022-07-06T07:30:36;98716.13;;;22.37;100.00
21902;BME280;11115;46.038;14.612;2022-07-06T07:33:19;98718.03;;;22.59;100.00
21902;BME280;11115;46.038;14.612;2022-07-06T07:36:00;98708.97;;;22.77;100.00
21902;BME280;11115;46.038;14.612;2022-07-06T07:38:36;98716.00;;;22.90;100.00
21902;BME280;11115;46.038;14.612;2022-07-06T07:41:04;98709.69;;;23.00;100.00
21902;BME280;11115;46.038;14.612;2022-07-06T07:43:51;98705.47;;;22.83;100.00
21902;BME280;11115;46.038;14.612;2022-07-06T07:46:27;98710.22;;;22.79;100.00
21902;BME280;11115;46.038;14.612;2022-07-06T07:48:58;98704.44;;;22.98;100.00
21902;BME280;11115;46.038;14.612;2022-07-06T07:51:32;98705.91;;;22.89;100.00
21902;BME280;11115;46.038;14.612;2022-07-06T07:54:03;98710.13;;;23.06;100.00
21902;BME280;11115;46.038;14.612;2022-07-06T07:56:50;98700.44;;;23.03;100.00
21902;BME280;11115;46.038;14.612;2022-07-06T07:59:30;98705.94;;;23.29;100.00
21902;BME280;11115;46.038;14.612;2022-07-06T08:02:01;98702.78;;;23.35;100.00
21902;BME280;11115;46.038;14.612;2022-07-06T08:04:35;98699.91;;;23.31;100.00
21902;BME280;11115;46.038;14.612;2022-07-06T08:07:06;98700.41;;;23.40;100.00
21902;BME280;11115;46.038;14.612;2022-07-06T08:09:41;98699.97;;;23.79;100.00
21902;BME280;11115;46.038;14.612;2022-07-06T08:12:13;98694.47;;;24.00;100.00
21902;BME280;11115;46.038;14.612;2022-07-06T08:14:51;98686.00;;;24.07;100.00
21902;BME280;11115;46.038;14.612;2022-07-06T08:17:28;98693.72;;;24.10;100.00
21902;BME280;11115;46.038;14.612;2022-07-06T08:20:00;98702.22;;;24.10;100.00
21902;BME280;11115;46.038;14.612;2022-07-06T08:22:35;98693.47;;;24.30;100.00
21902;BME280;11115;46.038;14.612;2022-07-06T08:25:16;98687.41;;;24.31;100.00
21902;BME280;11115;46.038;14.612;2022-07-06T08:27:47;98692.28;;;24.34;100.00
21902;BME280;11115;46.038;14.612;2022-07-06T08:30:20;98684.59;;;24.35;100.00
21902;BME280;11115;46.038;14.612;2022-07-06T08:32:54;98686.75;;;24.66;100.00
21902;BME280;11115;46.038;14.612;2022-07-06T08:35:35;98678.78;;;24.90;100.00
21902;BME280;11115;46.038;14.612;2022-07-06T08:38:08;98673.03;;;24.68;100.00
21902;BME280;11115;46.038;14.612;2022-07-06T08:40:40;98673.47;;;24.85;100.00
21902;BME280;11115;46.038;14.612;2022-07-06T08:43:12;98673.16;;;25.04;100.00
21902;BME280;11115;46.038;14.612;2022-07-06T08:45:53;98674.38;;;25.06;100.00
21902;BME280;11115;46.038;14.612;2022-07-06T08:48:27;98669.06;;;24.94;100.00
21902;BME280;11115;46.038;14.612;2022-07-06T08:51:04;98670.28;;;24.97;100.00
21902;BME280;11115;46.038;14.612;2022-07-06T08:53:41;98669.06;;;24.94;100.00
21902;BME280;11115;46.038;14.612;2022-07-06T08:56:12;98667.94;;;25.20;100.00
21902;BME280;11115;46.038;14.612;2022-07-06T08:58:41;98670.38;;;25.29;100.00
21902;BME280;11115;46.038;14.612;2022-07-06T09:01:27;98676.81;;;25.08;100.00
21902;BME280;11115;46.038;14.612;2022-07-06T09:04:08;98672.38;;;25.25;100.00
21902;BME280;11115;46.038;14.612;2022-07-06T09:06:45;98669.19;;;25.48;100.00
21902;BME280;11115;46.038;14.612;2022-07-06T09:09:28;98663.09;;;25.56;100.00
21902;BME280;11115;46.038;14.612;2022-07-06T09:12:03;98664.31;;;25.62;100.00
21902;BME280;11115;46.038;14.612;2022-07-06T09:14:41;98673.63;;;25.81;100.00
21902;BME280;11115;46.038;14.612;2022-07-06T09:17:13;98674.84;;;25.90;100.00
21902;BME280;11115;46.038;14.612;2022-07-06T09:19:46;98673.22;;;25.93;100.00
21902;BME280;11115;46.038;14.612;2022-07-06T09:22:32;98676.44;;;25.98;100.00
21902;BME280;11115;46.038;14.612;2022-07-06T09:25:14;98673.63;;;26.06;100.00
21902;BME280;11115;46.038;14.612;2022-07-06T09:27:51;98671.56;;;26.24;100.00
21902;BME280;11115;46.038;14.612;2022-07-06T09:30:23;98677.25;;;26.10;100.00
21902;BME280;11115;46.038;14.612;2022-07-06T09:32:58;98682.88;;;26.38;100.00
21902;BME280;11115;46.038;14.612;2022-07-06T09:35:39;98680.41;;;26.51;100.00
21902;BME280;11115;46.038;14.612;2022-07-06T09:38:14;98671.97;;;26.15;100.00
21902;BME280;11115;46.038;14.612;2022-07-06T09:40:45;98672.41;;;26.07;100.00
21902;BME280;11115;46.038;14.612;2022-07-06T09:43:24;98673.97;;;26.25;100.00
21902;BME280;11115;46.038;14.612;2022-07-06T09:45:56;98666.66;;;26.42;100.00
21902;BME280;11115;46.038;14.612;2022-07-06T09:48:28;98671.97;;;26.12;100.00
21902;BME280;11115;46.038;14.612;2022-07-06T09:51:03;98660.94;;;26.49;100.00
21902;BME280;11115;46.038;14.612;2022-07-06T09:53:51;98653.44;;;26.91;100.00
21902;BME280;11115;46.038;14.612;2022-07-06T09:56:40;98659.81;;;27.16;100.00
21902;BME280;11115;46.038;14.612;2022-07-06T09:59:15;98651.47;;;27.47;100.00
21902;BME280;11115;46.038;14.612;2022-07-06T10:01:44;98653.97;;;27.38;100.00
21902;BME280;11115;46.038;14.612;2022-07-06T10:04:18;98656.81;;;27.38;100.00
21902;BME280;11115;46.038;14.612;2022-07-06T10:06:48;98644.91;;;27.02;100.00
21902;BME280;11115;46.038;14.612;2022-07-06T10:09:21;98642.22;;;27.39;100.00
21902;BME280;11115;46.038;14.612;2022-07-06T10:11:59;98641.41;;;27.39;100.00
21902;BME280;11115;46.038;14.612;2022-07-06T10:14:35;98637.38;;;27.85;100.00
21902;BME280;11115;46.038;14.612;2022-07-06T10:17:17;98645.38;;;27.93;100.00
21902;BME280;11115;46.038;14.612;2022-07-06T10:19:59;98640.88;;;27.96;100.00
21902;BME280;11115;46.038;14.612;2022-07-06T10:22:40;98638.19;;;28.23;100.00
21902;BME280;11115;46.038;14.612;2022-07-06T10:25:18;98633.19;;;27.96;87.58
21902;BME280;11115;46.038;14.612;2022-07-06T10:27:56;98636.03;;;27.48;87.39
21902;BME280;11115;46.038;14.612;2022-07-06T10:30:31;98637.44;;;27.77;76.66
21902;BME280;11115;46.038;14.612;2022-07-06T10:33:10;98635.91;;;28.07;87.27
21902;BME280;11115;46.038;14.612;2022-07-06T10:35:46;98638.66;;;28.14;78.06
21902;BME280;11115;46.038;14.612;2022-07-06T10:38:20;98631.13;;;28.00;68.72
21902;BME280;11115;46.038;14.612;2022-07-06T10:41:09;98635.41;;;28.84;97.89
21902;BME280;11115;46.038;14.612;2022-07-06T10:43:48;98620.56;;;28.99;81.18
21902;BME280;11115;46.038;14.612;2022-07-06T10:46:28;98622.78;;;28.85;67.58
21902;BME280;11115;46.038;14.612;2022-07-06T10:48:58;98625.25;;;29.13;84.31
21902;BME280;11115;46.038;14.612;2022-07-06T10:51:40;98629.09;;;28.69;58.88
21902;BME280;11115;46.038;14.612;2022-07-06T10:54:09;98627.66;;;28.54;62.98
21902;BME280;11115;46.038;14.612;2022-07-06T10:56:40;98619.78;;;28.65;62.78
21902;BME280;11115;46.038;14.612;2022-07-06T10:59:19;98618.47;;;29.04;81.92
21902;BME280;11115;46.038;14.612;2022-07-06T11:02:17;98618.72;;;29.40;64.59
21902;BME280;11115;46.038;14.612;2022-07-06T11:04:48;98626.50;;;29.63;70.52
21902;BME280;11115;46.038;14.612;2022-07-06T11:07:48;98626.16;;;29.34;56.94
21902;BME280;11115;46.038;14.612;2022-07-06T11:10:22;98614.69;;;29.10;55.43
21902;BME280;11115;46.038;14.612;2022-07-06T11:13:02;98613.97;;;29.29;58.08
21902;BME280;11115;46.038;14.612;2022-07-06T11:15:47;98606.63;;;29.32;55.88
21902;BME280;11115;46.038;14.612;2022-07-06T11:18:19;98619.63;;;29.60;59.85
21902;BME280;11115;46.038;14.612;2022-07-06T11:21:22;98618.06;;;29.28;56.43
21902;BME280;11115;46.038;14.612;2022-07-06T11:23:54;98615.09;;;29.63;62.46
21902;BME280;11115;46.038;14.612;2022-07-06T11:26:27;98622.34;;;29.90;58.72
21902;BME280;11115;46.038;14.612;2022-07-06T11:29:09;98626.63;;;29.79;51.75
21902;BME280;11115;46.038;14.612;2022-07-06T11:31:38;98618.38;;;29.61;52.98
21902;BME280;11115;46.038;14.612;2022-07-06T11:34:25;98614.16;;;29.19;49.08
21902;BME280;11115;46.038;14.612;2022-07-06T11:36:56;98615.09;;;29.12;49.21
21902;BME280;11115;46.038;14.612;2022-07-06T11:39:29;98619.38;;;29.24;49.87
21902;BME280;11115;46.038;14.612;2022-07-06T11:42:08;98608.69;;;29.31;46.50
21902;BME280;11115;46.038;14.612;2022-07-06T11:44:40;98608.03;;;29.71;51.93
21902;BME280;11115;46.038;14.612;2022-07-06T11:47:18;98611.66;;;30.18;66.46
21902;BME280;11115;46.038;14.612;2022-07-06T11:50:00;98601.91;;;30.15;49.61
21902;BME280;11115;46.038;14.612;2022-07-06T11:52:34;98588.50;;;29.69;47.28
21902;BME280;11115;46.038;14.612;2022-07-06T11:55:05;98597.31;;;30.21;55.70
21902;BME280;11115;46.038;14.612;2022-07-06T11:57:48;98585.63;;;29.92;48.74
21902;BME280;11115;46.038;14.612;2022-07-06T12:00:29;98591.22;;;30.19;55.23
21902;BME280;11115;46.038;14.612;2022-07-06T12:03:09;98590.31;;;30.82;55.13
21902;BME280;11115;46.038;14.612;2022-07-06T12:05:53;98566.38;;;30.20;52.21
21902;BME280;11115;46.038;14.612;2022-07-06T12:08:55;98571.19;;;30.23;47.58
21902;BME280;11115;46.038;14.612;2022-07-06T12:11:36;98570.47;;;29.76;44.10
21902;BME280;11115;46.038;14.612;2022-07-06T12:14:18;98569.72;;;30.55;49.76
21902;BME280;11115;46.038;14.612;2022-07-06T12:16:59;98552.06;;;30.40;47.86
21902;BME280;11115;46.038;14.612;2022-07-06T12:19:30;98556.69;;;30.90;48.35
21902;BME280;11115;46.038;14.612;2022-07-06T12:22:24;98549.22;;;31.12;47.10
21902;BME280;11115;46.038;14.612;2022-07-06T12:24:55;98549.28;;;30.92;45.55
21902;BME280;11115;46.038;14.612;2022-07-06T12:27:34;98555.38;;;30.38;42.23
21902;BME280;11115;46.038;14.612;2022-07-06T12:30:14;98557.84;;;29.53;40.06
21902;BME280;11115;46.038;14.612;2022-07-06T12:33:15;98562.25;;;30.41;42.24
21902;BME280;11115;46.038;14.612;2022-07-06T12:35:45;98549.09;;;30.67;41.23
21902;BME280;11115;46.038;14.612;2022-07-06T12:38:28;98545.31;;;31.22;40.46
21902;BME280;11115;46.038;14.612;2022-07-06T12:41:03;98549.72;;;30.74;39.45
21902;BME280;11115;46.038;14.612;2022-07-06T12:43:41;98545.91;;;29.82;39.10
21902;BME280;11115;46.038;14.612;2022-07-06T12:49:21;98565.28;;;30.14;39.79
21902;BME280;11115;46.038;14.612;2022-07-06T12:52:01;98560.13;;;30.65;43.71
21902;BME280;11115;46.038;14.612;2022-07-06T12:54:45;98551.13;;;30.27;47.95
21902;BME280;11115;46.038;14.612;2022-07-06T12:57:21;98550.66;;;30.12;58.62
21902;BME280;11115;46.038;14.612;2022-07-06T13:00:01;98553.66;;;30.01;71.81
21902;BME280;11115;46.038;14.612;2022-07-06T13:02:43;98550.78;;;30.25;58.56
21902;BME280;11115;46.038;14.612;2022-07-06T13:05:32;98542.84;;;30.52;47.04
21902;BME280;11115;46.038;14.612;2022-07-06T13:08:11;98538.91;;;30.82;48.18
21902;BME280;11115;46.038;14.612;2022-07-06T13:10:46;98536.41;;;30.68;40.74
21902;BME280;11115;46.038;14.612;2022-07-06T13:13:29;98536.03;;;30.66;40.17
21902;BME280;11115;46.038;14.612;2022-07-06T13:16:06;98538.47;;;30.47;42.07
21902;BME280;11115;46.038;14.612;2022-07-06T13:18:51;98539.19;;;30.71;42.17
21902;BME280;11115;46.038;14.612;2022-07-06T13:21:29;98534.38;;;30.68;44.71
21902;BME280;11115;46.038;14.612;2022-07-06T13:24:07;98537.59;;;31.03;41.43
21902;BME280;11115;46.038;14.612;2022-07-06T13:26:41;98529.94;;;31.16;42.60
21902;BME280;11115;46.038;14.612;2022-07-06T13:29:09;98524.13;;;31.52;41.38
21902;BME280;11115;46.038;14.612;2022-07-06T13:31:40;98522.78;;;31.57;41.40
21902;BME280;11115;46.038;14.612;2022-07-06T13:34:11;98523.19;;;31.88;41.12
21902;BME280;11115;46.038;14.612;2022-07-06T13:36:48;98520.28;;;32.04;39.74
21902;BME280;11115;46.038;14.612;2022-07-06T13:39:26;98520.16;;;31.79;40.41